createdAt,value
2019-03-23T00:00:09.112Z,13.00
2019-03-23T00:02:38.767Z,13.00
2019-03-23T00:05:08.707Z,12.90
2019-03-23T00:07:38.446Z,12.80
2019-03-23T00:10:08.325Z,12.80
2019-03-23T00:12:38.076Z,12.80
2019-03-23T00:15:08.709Z,12.70
2019-03-23T00:17:38.291Z,12.70
2019-03-23T00:20:08.212Z,12.80
2019-03-23T00:22:37.579Z,12.80
2019-03-23T00:25:07.647Z,12.90
2019-03-23T00:27:37.315Z,12.80
2019-03-23T00:30:07.615Z,12.80
2019-03-23T00:32:36.983Z,12.80
2019-03-23T00:35:06.978Z,12.80
2019-03-23T00:37:36.382Z,12.70
2019-03-23T00:40:06.976Z,12.60
2019-03-23T00:42:36.647Z,12.50
2019-03-23T00:45:06.620Z,12.40
2019-03-23T00:47:35.951Z,12.30
2019-03-23T00:50:06.086Z,12.30
2019-03-23T00:52:35.528Z,12.40
2019-03-23T00:55:05.502Z,12.40
2019-03-23T00:57:35.124Z,12.40
2019-03-23T01:00:05.595Z,12.50
2019-03-23T01:02:34.985Z,12.70
2019-03-23T01:05:05.615Z,12.80
2019-03-23T01:07:35.039Z,12.80
2019-03-23T01:10:05.876Z,12.90
2019-03-23T01:12:35.457Z,13.00
2019-03-23T01:15:06.086Z,13.10
2019-03-23T01:17:35.419Z,13.10
2019-03-23T01:20:06.040Z,13.20
2019-03-23T01:22:35.406Z,13.40
2019-03-23T01:25:05.262Z,13.40
2019-03-23T01:27:34.652Z,13.50
2019-03-23T01:30:05.006Z,13.50
2019-03-23T01:32:34.594Z,13.30
2019-03-23T01:35:04.505Z,13.10
2019-03-23T01:37:33.803Z,12.90
2019-03-23T01:40:03.167Z,12.80
2019-03-23T01:42:33.067Z,12.60
2019-03-23T01:45:02.450Z,12.60
2019-03-23T01:47:32.368Z,12.60
2019-03-23T01:50:02.041Z,12.80
2019-03-23T01:52:31.497Z,12.80
2019-03-23T01:55:00.877Z,12.90
2019-03-23T01:57:30.201Z,13.00
2019-03-23T01:59:59.531Z,13.10
2019-03-23T02:02:28.857Z,13.10
2019-03-23T02:04:58.812Z,13.20
2019-03-23T02:07:28.397Z,13.20
2019-03-23T02:09:58.331Z,13.40
2019-03-23T02:12:27.955Z,13.40
2019-03-23T02:14:57.261Z,13.40
2019-03-23T02:17:27.612Z,13.50
2019-03-23T02:19:56.912Z,13.50
2019-03-23T02:22:26.249Z,13.50
2019-03-23T02:24:55.553Z,13.50
2019-03-23T02:27:25.460Z,13.40
2019-03-23T02:29:54.756Z,13.40
2019-03-23T02:32:24.062Z,13.40
2019-03-23T02:34:53.673Z,13.50
2019-03-23T02:37:27.989Z,13.50
2019-03-23T02:39:54.539Z,13.50
2019-03-23T02:42:24.401Z,13.50
2019-03-23T02:44:53.797Z,13.50
2019-03-23T02:47:23.758Z,13.50
2019-03-23T02:49:53.569Z,13.50
2019-03-23T02:52:23.268Z,13.50
2019-03-23T02:54:52.960Z,13.50
2019-03-23T02:57:22.345Z,13.50
2019-03-23T02:59:51.931Z,13.40
2019-03-23T03:02:21.568Z,13.40
2019-03-23T03:04:51.469Z,13.50
2019-03-23T03:07:21.124Z,13.50
2019-03-23T03:09:50.490Z,13.50
2019-03-23T03:12:19.774Z,13.50
2019-03-23T03:14:49.101Z,13.50
2019-03-23T03:17:18.844Z,13.40
2019-03-23T03:19:48.174Z,13.30
2019-03-23T03:22:17.605Z,13.30
2019-03-23T03:24:47.455Z,13.40
2019-03-23T03:27:17.065Z,13.50
2019-03-23T03:29:46.628Z,13.50
2019-03-23T03:32:16.265Z,13.40
2019-03-23T03:34:46.010Z,13.40
2019-03-23T03:37:15.412Z,13.40
2019-03-23T03:39:45.096Z,13.40
2019-03-23T03:42:14.671Z,13.40
2019-03-23T03:44:44.297Z,13.40
2019-03-23T03:47:13.621Z,13.40
2019-03-23T03:49:43.458Z,13.40
2019-03-23T03:52:12.755Z,13.30
2019-03-23T03:54:42.053Z,13.40
2019-03-23T03:57:12.012Z,13.50
2019-03-23T03:59:41.974Z,13.50
2019-03-23T04:02:11.352Z,13.30
2019-03-23T04:04:40.952Z,13.40
2019-03-23T04:07:10.327Z,13.30
2019-03-23T04:09:40.473Z,13.30
2019-03-23T04:12:09.995Z,13.20
2019-03-23T04:14:39.355Z,13.20
2019-03-23T04:17:09.010Z,13.10
2019-03-23T04:19:38.916Z,13.20
2019-03-23T04:22:08.621Z,13.10
2019-03-23T04:24:38.251Z,13.10
2019-03-23T04:27:07.566Z,13.10
2019-03-23T04:29:36.934Z,13.10
2019-03-23T04:32:06.236Z,13.20
2019-03-23T04:34:35.822Z,13.20
2019-03-23T04:37:05.297Z,13.30
2019-03-23T04:39:34.933Z,13.30
2019-03-23T04:42:04.428Z,13.20
2019-03-23T04:44:34.025Z,13.30
2019-03-23T04:47:03.396Z,13.30
2019-03-23T04:49:32.698Z,13.20
2019-03-23T04:52:02.021Z,13.30
2019-03-23T04:54:31.725Z,13.30
2019-03-23T04:57:01.022Z,13.20
2019-03-23T04:59:30.689Z,13.20
2019-03-23T05:01:59.994Z,13.20
2019-03-23T05:04:29.796Z,13.30
2019-03-23T05:06:59.606Z,13.30
2019-03-23T05:09:28.943Z,13.30
2019-03-23T05:11:58.315Z,13.10
2019-03-23T05:14:28.192Z,13.20
2019-03-23T05:16:58.105Z,13.20
2019-03-23T05:19:27.740Z,13.10
2019-03-23T05:21:57.787Z,13.20
2019-03-23T05:24:27.215Z,13.30
2019-03-23T05:26:56.529Z,13.30
2019-03-23T05:29:25.895Z,13.40
2019-03-23T05:31:55.784Z,13.40
2019-03-23T05:34:25.701Z,13.40
2019-03-23T05:36:54.995Z,13.40
2019-03-23T05:39:24.824Z,13.50
2019-03-23T05:41:54.207Z,13.50
2019-03-23T05:44:24.122Z,13.30
2019-03-23T05:46:54.502Z,13.30
2019-03-23T05:49:24.258Z,13.10
2019-03-23T05:51:53.546Z,13.10
2019-03-23T05:54:23.119Z,13.10
2019-03-23T05:56:52.494Z,13.10
2019-03-23T05:59:22.011Z,13.10
2019-03-23T06:01:51.682Z,13.10
2019-03-23T06:04:21.087Z,13.00
2019-03-23T06:06:50.393Z,12.90
2019-03-23T06:09:19.724Z,12.90
2019-03-23T06:11:49.027Z,12.70
2019-03-23T06:14:18.915Z,12.40
2019-03-23T06:16:48.208Z,12.20
2019-03-23T06:19:17.823Z,12.00
2019-03-23T06:21:47.131Z,11.90
2019-03-23T06:24:16.440Z,11.90
2019-03-23T06:26:45.773Z,11.80
2019-03-23T06:29:15.171Z,11.60
2019-03-23T06:31:44.466Z,11.60
2019-03-23T06:34:13.796Z,11.50
2019-03-23T06:36:43.520Z,11.40
2019-03-23T06:39:12.831Z,11.30
2019-03-23T06:41:42.131Z,11.50
2019-03-23T06:44:11.749Z,11.60
2019-03-23T06:46:41.347Z,11.40
2019-03-23T06:49:10.963Z,11.20
2019-03-23T06:51:40.677Z,11.30
2019-03-23T06:54:09.990Z,11.30
2019-03-23T06:56:39.328Z,11.30
2019-03-23T06:59:08.967Z,11.20
2019-03-23T07:01:38.348Z,11.10
2019-03-23T07:04:07.737Z,11.00
2019-03-23T07:06:37.079Z,11.10
2019-03-23T07:09:15.770Z,11.00
2019-03-23T07:11:38.690Z,11.00
2019-03-23T07:14:07.988Z,10.90
2019-03-23T07:16:37.322Z,10.90
2019-03-23T07:19:06.625Z,10.80
2019-03-23T07:21:36.003Z,10.60
2019-03-23T07:24:05.421Z,10.50
2019-03-23T07:26:34.888Z,10.50
2019-03-23T07:29:04.620Z,10.50
2019-03-23T07:31:34.284Z,10.50
2019-03-23T07:34:06.075Z,10.40
2019-03-23T07:36:34.855Z,10.30
2019-03-23T07:39:05.047Z,10.30
2019-03-23T07:41:34.377Z,10.50
2019-03-23T07:44:03.788Z,10.60
2019-03-23T07:46:33.172Z,10.70
2019-03-23T07:49:02.475Z,10.70
2019-03-23T07:51:31.801Z,10.80
2019-03-23T07:54:02.758Z,10.80
2019-03-23T07:56:32.249Z,10.70
2019-03-23T07:59:01.888Z,10.70
2019-03-23T08:01:31.186Z,10.70
2019-03-23T08:04:00.798Z,10.60
2019-03-23T08:06:30.349Z,10.50
2019-03-23T08:09:00.035Z,10.40
2019-03-23T08:11:29.910Z,10.20
2019-03-23T08:13:59.518Z,10.00
2019-03-23T08:16:28.814Z,9.80
2019-03-23T08:18:58.119Z,9.80
2019-03-23T08:21:27.455Z,9.80
2019-03-23T08:23:57.128Z,9.80
2019-03-23T08:26:26.816Z,9.60
2019-03-23T08:28:56.122Z,9.50
2019-03-23T08:31:27.196Z,9.50
2019-03-23T08:33:56.722Z,9.50
2019-03-23T08:36:26.306Z,9.60
2019-03-23T08:38:55.648Z,9.70
2019-03-23T08:41:24.995Z,9.80
2019-03-23T08:43:54.290Z,9.80
2019-03-23T08:46:23.855Z,9.90
2019-03-23T08:48:53.169Z,9.90
2019-03-23T08:51:22.475Z,10.00
2019-03-23T08:53:51.803Z,10.10
2019-03-23T08:56:21.144Z,10.10
2019-03-23T08:58:48.618Z,10.10
2019-03-23T09:01:17.969Z,10.20
2019-03-23T09:03:52.343Z,10.10
2019-03-23T09:06:19.153Z,10.20
2019-03-23T09:08:48.744Z,10.20
2019-03-23T09:11:20.663Z,10.20
2019-03-23T09:13:49.090Z,10.10
2019-03-23T09:16:19.368Z,9.90
2019-03-23T09:18:48.915Z,9.80
2019-03-23T09:21:18.473Z,9.80
2019-03-23T09:23:48.070Z,9.70
2019-03-23T09:26:17.389Z,9.70
2019-03-23T09:28:47.047Z,9.60
2019-03-23T09:31:16.364Z,9.50
2019-03-23T09:33:46.366Z,9.80
2019-03-23T09:36:15.864Z,10.00
2019-03-23T09:38:45.233Z,10.00
2019-03-23T09:41:14.571Z,9.80
2019-03-23T09:43:44.904Z,9.60
2019-03-23T09:46:14.542Z,9.80
2019-03-23T09:48:43.852Z,10.00
2019-03-23T09:51:13.513Z,10.10
2019-03-23T09:53:43.552Z,10.00
2019-03-23T09:56:13.274Z,10.10
2019-03-23T09:58:42.911Z,10.20
2019-03-23T10:01:12.235Z,10.10
2019-03-23T10:03:42.955Z,10.10
2019-03-23T10:06:12.834Z,10.10
2019-03-23T10:08:42.136Z,9.90
2019-03-23T10:11:11.436Z,10.00
2019-03-23T10:13:41.008Z,10.00
2019-03-23T10:16:10.598Z,9.90
2019-03-23T10:18:40.156Z,9.90
2019-03-23T10:21:09.828Z,10.00
2019-03-23T10:23:39.185Z,10.00
2019-03-23T10:26:08.839Z,10.00
2019-03-23T10:28:38.220Z,10.10
2019-03-23T10:31:07.590Z,10.10
2019-03-23T10:33:37.645Z,10.20
2019-03-23T10:36:06.991Z,10.30
2019-03-23T10:38:36.317Z,10.20
2019-03-23T10:41:05.912Z,10.20
2019-03-23T10:43:35.331Z,10.20
2019-03-23T10:46:05.058Z,10.10
2019-03-23T10:48:34.694Z,9.90
2019-03-23T10:51:04.083Z,9.90
2019-03-23T10:53:34.181Z,10.00
2019-03-23T10:56:03.771Z,10.00
2019-03-23T10:58:33.608Z,10.00
2019-03-23T11:01:03.190Z,10.00
2019-03-23T11:03:33.038Z,10.00
2019-03-23T11:06:02.519Z,10.10
2019-03-23T11:08:32.707Z,10.10
2019-03-23T11:11:02.904Z,10.20
2019-03-23T11:13:32.806Z,10.30
2019-03-23T11:16:02.789Z,10.30
2019-03-23T11:18:32.921Z,10.20
2019-03-23T11:21:02.484Z,10.20
2019-03-23T11:23:32.383Z,10.00
2019-03-23T11:26:01.742Z,10.20
2019-03-23T11:28:31.687Z,10.30
2019-03-23T11:31:01.367Z,10.30
2019-03-23T11:33:30.689Z,10.50
2019-03-23T11:36:00.344Z,10.70
2019-03-23T11:38:29.936Z,10.60
2019-03-23T11:41:00.132Z,10.50
2019-03-23T11:43:29.938Z,10.50
2019-03-23T11:45:59.643Z,10.50
2019-03-23T11:48:28.958Z,10.60
2019-03-23T11:50:58.538Z,10.60
2019-03-23T11:53:27.848Z,10.50
2019-03-23T11:55:57.417Z,10.50
2019-03-23T11:58:26.748Z,10.50
2019-03-23T12:00:56.075Z,10.50
2019-03-23T12:03:25.377Z,10.70
2019-03-23T12:05:55.285Z,10.80
2019-03-23T12:08:24.612Z,10.80
2019-03-23T12:11:02.509Z,10.80
2019-03-23T12:13:25.820Z,10.70
2019-03-23T12:15:55.429Z,10.70
2019-03-23T12:18:25.101Z,10.80
2019-03-23T12:20:55.240Z,10.70
2019-03-23T12:23:24.564Z,10.60
2019-03-23T12:25:54.160Z,10.70
2019-03-23T12:28:23.490Z,10.90
2019-03-23T12:30:53.047Z,10.90
2019-03-23T12:33:22.376Z,10.70
2019-03-23T12:35:52.018Z,10.70
2019-03-23T12:38:22.000Z,10.80
2019-03-23T12:40:51.570Z,10.90
2019-03-23T12:43:21.274Z,11.10
2019-03-23T12:45:50.906Z,11.30
2019-03-23T12:48:20.544Z,11.30
2019-03-23T12:50:50.500Z,11.30
2019-03-23T12:53:20.511Z,11.40
2019-03-23T12:55:50.170Z,11.50
2019-03-23T12:58:19.503Z,11.30
2019-03-23T13:00:48.924Z,11.30
2019-03-23T13:03:18.692Z,11.30
2019-03-23T13:05:48.034Z,11.50
2019-03-23T13:08:17.626Z,11.70
2019-03-23T13:10:47.210Z,11.70
2019-03-23T13:13:16.590Z,11.80
2019-03-23T13:15:46.155Z,11.70
2019-03-23T13:18:15.803Z,11.80
2019-03-23T13:20:45.287Z,11.90
2019-03-23T13:23:14.972Z,11.90
2019-03-23T13:25:44.870Z,11.90
2019-03-23T13:28:14.508Z,11.80
2019-03-23T13:30:43.844Z,12.00
2019-03-23T13:33:13.635Z,12.00
2019-03-23T13:35:43.065Z,12.00
2019-03-23T13:38:12.529Z,12.00
2019-03-23T13:40:41.852Z,12.10
2019-03-23T13:43:11.528Z,12.20
2019-03-23T13:45:42.778Z,12.30
2019-03-23T13:48:14.040Z,12.20
2019-03-23T13:50:43.421Z,12.10
2019-03-23T13:53:12.752Z,12.00
2019-03-23T13:55:42.074Z,11.90
2019-03-23T13:58:15.001Z,11.80
2019-03-23T14:00:44.660Z,11.90
2019-03-23T14:03:14.146Z,12.00
2019-03-23T14:05:44.431Z,12.20
2019-03-23T14:08:13.896Z,12.40
2019-03-23T14:10:43.720Z,12.50
2019-03-23T14:13:13.052Z,12.60
2019-03-23T14:15:42.779Z,12.70
2019-03-23T14:18:12.207Z,12.80
2019-03-23T14:20:41.683Z,12.80
2019-03-23T14:23:11.300Z,12.90
2019-03-23T14:25:40.688Z,13.00
2019-03-23T14:28:10.107Z,13.00
2019-03-23T14:30:39.693Z,13.10
2019-03-23T14:33:09.282Z,13.10
2019-03-23T14:35:38.619Z,13.30
2019-03-23T14:38:07.935Z,13.10
2019-03-23T14:40:37.256Z,13.10
2019-03-23T14:43:06.814Z,13.10
2019-03-23T14:45:37.051Z,13.20
2019-03-23T14:48:06.832Z,13.20
2019-03-23T14:50:36.454Z,13.30
2019-03-23T14:53:06.485Z,13.40
2019-03-23T14:55:37.486Z,13.30
2019-03-23T14:58:07.435Z,13.30
2019-03-23T15:00:37.072Z,13.30
2019-03-23T15:03:06.502Z,13.30
2019-03-23T15:05:36.076Z,13.30
2019-03-23T15:08:05.742Z,13.20
2019-03-23T15:10:35.372Z,13.30
2019-03-23T15:13:05.074Z,13.20
2019-03-23T15:15:34.495Z,13.10
2019-03-23T15:18:03.807Z,13.10
2019-03-23T15:20:33.414Z,13.20
2019-03-23T15:23:02.763Z,13.20
2019-03-23T15:25:32.414Z,13.40
2019-03-23T15:28:02.079Z,13.30
2019-03-23T15:30:31.770Z,13.30
2019-03-23T15:33:01.726Z,13.40
2019-03-23T15:35:31.339Z,13.40
2019-03-23T15:38:00.940Z,13.60
2019-03-23T15:40:30.267Z,13.50
2019-03-23T15:42:59.844Z,13.60
2019-03-23T15:45:29.561Z,13.60
2019-03-23T15:47:58.871Z,13.60
2019-03-23T15:50:28.581Z,13.60
2019-03-23T15:52:57.886Z,13.60
2019-03-23T15:55:27.894Z,13.60
2019-03-23T15:57:57.399Z,13.40
2019-03-23T16:00:26.879Z,13.40
2019-03-23T16:02:56.511Z,13.30
2019-03-23T16:05:25.852Z,13.30
2019-03-23T16:07:55.520Z,13.30
2019-03-23T16:10:25.147Z,13.30
2019-03-23T16:12:55.156Z,13.40
2019-03-23T16:15:24.882Z,13.40
2019-03-23T16:17:54.396Z,13.40
2019-03-23T16:20:24.057Z,13.30
2019-03-23T16:22:53.667Z,13.30
2019-03-23T16:25:23.345Z,13.30
2019-03-23T16:27:52.742Z,13.40
2019-03-23T16:30:31.500Z,13.40
2019-03-23T16:33:01.151Z,13.50
2019-03-23T16:35:31.188Z,13.50
2019-03-23T16:38:00.785Z,13.60
2019-03-23T16:40:30.505Z,13.60
2019-03-23T16:43:00.568Z,13.60
2019-03-23T16:45:30.409Z,13.60
2019-03-23T16:48:00.978Z,13.60
2019-03-23T16:50:30.298Z,13.50
2019-03-23T16:52:59.602Z,13.60
2019-03-23T16:55:29.014Z,13.60
2019-03-23T16:57:58.728Z,13.60
2019-03-23T17:00:35.551Z,13.50
2019-03-23T17:03:05.636Z,13.60
2019-03-23T17:05:36.540Z,13.60
2019-03-23T17:08:07.137Z,13.60
2019-03-23T17:10:37.314Z,13.60
2019-03-23T17:13:06.714Z,13.50
2019-03-23T17:15:37.564Z,13.40
2019-03-23T17:18:07.015Z,13.20
2019-03-23T17:20:36.553Z,13.20
2019-03-23T17:23:05.907Z,13.30
2019-03-23T17:25:37.621Z,13.30
2019-03-23T17:28:07.000Z,13.30
2019-03-23T17:30:36.921Z,13.30
2019-03-23T17:33:06.333Z,13.30
2019-03-23T17:35:35.940Z,13.30
2019-03-23T17:38:05.680Z,13.20
2019-03-23T17:40:35.289Z,13.30
2019-03-23T17:43:06.206Z,13.30
2019-03-23T17:45:36.125Z,13.30
2019-03-23T17:48:05.615Z,13.30
2019-03-23T17:50:35.219Z,13.40
2019-03-23T17:53:04.828Z,13.40
2019-03-23T17:55:34.157Z,13.40
2019-03-23T17:58:03.969Z,13.40
2019-03-23T18:00:33.315Z,13.50
2019-03-23T18:03:02.647Z,13.50
2019-03-23T18:05:32.015Z,13.40
2019-03-23T18:08:01.809Z,13.30
2019-03-23T18:10:31.456Z,13.30
2019-03-23T18:13:01.062Z,13.30
2019-03-23T18:15:30.559Z,13.30
2019-03-23T18:17:59.886Z,13.30
2019-03-23T18:20:29.246Z,13.30
2019-03-23T18:22:59.245Z,13.20
2019-03-23T18:25:28.896Z,13.10
2019-03-23T18:27:58.401Z,13.10
2019-03-23T18:30:40.248Z,13.10
2019-03-23T18:33:09.748Z,13.20
2019-03-23T18:35:39.631Z,13.20
2019-03-23T18:38:09.341Z,13.10
2019-03-23T18:40:39.085Z,13.10
2019-03-23T18:43:08.755Z,13.10
2019-03-23T18:45:38.277Z,13.10
2019-03-23T18:48:08.065Z,13.10
2019-03-23T18:50:37.802Z,13.10
2019-03-23T18:53:07.167Z,13.10
2019-03-23T18:55:36.826Z,13.00
2019-03-23T18:58:06.523Z,12.80
2019-03-23T19:00:41.608Z,12.70
2019-03-23T19:03:12.260Z,12.60
2019-03-23T19:05:41.955Z,12.50
2019-03-23T19:08:12.001Z,12.50
2019-03-23T19:10:41.643Z,12.40
2019-03-23T19:13:11.018Z,12.40
2019-03-23T19:15:40.371Z,12.30
2019-03-23T19:18:10.175Z,12.20
2019-03-23T19:20:39.815Z,12.00
2019-03-23T19:23:09.203Z,11.70
2019-03-23T19:25:38.519Z,11.70
2019-03-23T19:28:08.241Z,11.60
2019-03-23T19:30:37.639Z,11.30
2019-03-23T19:33:07.129Z,11.30
2019-03-23T19:35:36.466Z,11.40
2019-03-23T19:38:06.293Z,11.60
2019-03-23T19:40:35.747Z,11.80
2019-03-23T19:43:05.275Z,11.70
2019-03-23T19:45:34.594Z,11.80
2019-03-23T19:48:04.020Z,11.80
2019-03-23T19:50:33.791Z,11.90
2019-03-23T19:53:03.552Z,11.90
2019-03-23T19:55:33.286Z,12.00
2019-03-23T19:58:02.691Z,12.10
2019-03-23T20:00:32.306Z,12.10
2019-03-23T20:03:01.728Z,12.10
2019-03-23T20:05:31.438Z,12.00
2019-03-23T20:08:00.838Z,12.00
2019-03-23T20:10:30.419Z,12.10
2019-03-23T20:12:59.871Z,12.10
2019-03-23T20:15:29.414Z,12.10
2019-03-23T20:17:58.867Z,12.10
2019-03-23T20:20:28.287Z,12.10
2019-03-23T20:22:57.699Z,12.20
2019-03-23T20:25:27.348Z,12.10
2019-03-23T20:27:56.959Z,12.10
2019-03-23T20:30:26.351Z,12.00
2019-03-23T20:32:55.934Z,12.00
2019-03-23T20:35:25.535Z,12.00
2019-03-23T20:37:55.796Z,11.90
2019-03-23T20:40:25.109Z,11.90
2019-03-23T20:42:54.435Z,11.90
2019-03-23T20:45:33.004Z,11.90
2019-03-23T20:48:03.653Z,11.80
2019-03-23T20:50:33.042Z,11.80
2019-03-23T20:53:03.364Z,11.80
2019-03-23T20:55:32.867Z,11.80
2019-03-23T20:58:02.611Z,11.70
2019-03-23T21:00:32.292Z,11.60
2019-03-23T21:03:02.033Z,11.50
2019-03-23T21:05:34.071Z,11.40
2019-03-23T21:08:02.488Z,11.30
2019-03-23T21:10:31.857Z,11.30
2019-03-23T21:13:01.204Z,11.30
2019-03-23T21:15:30.522Z,11.40
2019-03-23T21:18:00.671Z,11.40
2019-03-23T21:20:29.981Z,11.40
2019-03-23T21:22:59.992Z,11.30
2019-03-23T21:25:29.321Z,11.40
2019-03-23T21:27:58.706Z,11.40
2019-03-23T21:30:28.021Z,11.40
2019-03-23T21:32:57.341Z,11.50
2019-03-23T21:35:26.669Z,11.50
2019-03-23T21:37:56.399Z,11.40
2019-03-23T21:40:26.064Z,11.40
2019-03-23T21:42:55.379Z,11.40
2019-03-23T21:45:25.327Z,11.40
2019-03-23T21:47:54.648Z,11.40
2019-03-23T21:50:24.647Z,11.30
2019-03-23T21:52:53.964Z,11.30
2019-03-23T21:55:23.393Z,11.30
2019-03-23T21:57:52.771Z,11.30
2019-03-23T22:00:35.578Z,11.30
2019-03-23T22:03:05.183Z,11.30
2019-03-23T22:05:34.669Z,11.30
2019-03-23T22:08:04.494Z,11.30
2019-03-23T22:10:34.125Z,11.20
2019-03-23T22:13:03.704Z,11.10
2019-03-23T22:15:34.359Z,10.90
2019-03-23T22:18:04.056Z,10.80
2019-03-23T22:20:33.584Z,10.60
2019-03-23T22:23:03.023Z,10.60
2019-03-23T22:25:32.681Z,10.60
2019-03-23T22:28:02.089Z,10.60
2019-03-23T22:30:31.560Z,10.60
2019-03-23T22:33:01.093Z,10.40
2019-03-23T22:35:30.447Z,10.30
2019-03-23T22:37:59.757Z,10.30
2019-03-23T22:40:30.305Z,10.30
2019-03-23T22:42:59.728Z,10.30
2019-03-23T22:45:29.054Z,10.20
2019-03-23T22:47:58.945Z,10.20
2019-03-23T22:50:28.267Z,10.30
2019-03-23T22:52:58.143Z,10.30
2019-03-23T22:55:27.482Z,10.40
2019-03-23T22:57:56.786Z,10.50
2019-03-23T23:00:42.107Z,10.40
2019-03-23T23:03:12.506Z,10.40
2019-03-23T23:05:42.399Z,10.30
2019-03-23T23:08:11.808Z,10.40
2019-03-23T23:10:41.525Z,10.30
2019-03-23T23:13:10.863Z,10.20
2019-03-23T23:15:40.428Z,10.20
2019-03-23T23:18:10.085Z,10.20
2019-03-23T23:20:39.412Z,10.20
2019-03-23T23:23:09.096Z,10.30
2019-03-23T23:25:38.697Z,10.20
2019-03-23T23:28:08.075Z,10.30
2019-03-23T23:30:37.665Z,10.20
2019-03-23T23:33:07.047Z,10.20
2019-03-23T23:35:36.368Z,10.10
2019-03-23T23:38:05.750Z,9.90
2019-03-23T23:40:35.345Z,9.70
2019-03-23T23:43:04.719Z,9.50
2019-03-23T23:45:34.025Z,9.20
2019-03-23T23:48:03.326Z,8.90
2019-03-23T23:50:32.900Z,8.90
2019-03-23T23:53:02.494Z,9.00
2019-03-23T23:55:32.188Z,9.10
2019-03-23T23:58:01.849Z,9.20
